Flight Track Log - Related Links

Times and Time Zones

All times are in EDT time to prevent confusion due to time zone crossing. See the UPS1304 flight status page for this flight to view local times or setup timezone preferences in your user account.

Time Position Orientation Groundspeed Altitude Reporting Facility
EDT Latitude Longitude Course Direction KTS MPH feet Rate Location/Type
Thu 04:11:40 AM 38.1710 -85.7400 292° West 25 29  Level FlightAware ADS-B
Thu 04:11:52 AM 38.1710 -85.7410 270° West 24 28 304 Level FlightAware ADS-B
Thu 04:12:32 AM 38.1720 -85.7420 322° Northwest 20 23 315 Level FlightAware ADS-B
Thu 04:13:04 AM 38.1750 -85.7430 345° North 20 23 359 Level FlightAware ADS-B
Thu 04:13:42 AM 38.1790 -85.7440 349° North 18 21 405 Level FlightAware ADS-B
Thu 04:13:56 AM 38.1800 -85.7450 322° Northwest 19 22 477 Level FlightAware ADS-B
Thu 04:14:30 AM 38.1830 -85.7460 345° North 16 18 510 Level FlightAware ADS-B
Thu 04:14:55 AM 38.1850 -85.7460 360° North 27 31 614 Level FlightAware ADS-B
Thu 04:15:05 AM 38.1850 -85.7470 270° West 24 28 723 Level FlightAware ADS-B
Thu 04:16:30 AM 38.1810 -85.7470 180° South 88 101 779 Level FlightAware ADS-B
Thu 04:16:42 AM 38.1750 -85.7450 165° South 130 150 2,217 Level FlightAware ADS-B
Thu 04:17:16 AM 38.1490 -85.7410 173° South 160 184 1,700 2,419 Climbing FlightAware ADS-B
Thu 04:17:44 AM 38.1250 -85.7470 191° South 206 237 2,500 1,731 Climbing FlightAware ADS-B
Thu 04:18:08 AM 38.1010 -85.7530 191° South 250 288 3,200 3,000 Climbing FlightAware ADS-B
Thu 04:18:40 AM 38.0630 -85.7610 189° South 255 293 5,300 3,900 Climbing FlightAware ADS-B
Thu 04:19:08 AM 38.0310 -85.7760 200° South 263 303 7,100 3,667 Climbing FlightAware ADS-B
Thu 04:19:34 AM 38.0030 -85.7940 207° Southwest 266 306 8,600 3,947 Climbing FlightAware ADS-B
Thu 04:19:46 AM 37.9890 -85.8030 207° Southwest 263 303 9,600 3,167 Climbing FlightAware ADS-B
Thu 04:20:46 AM 37.9190 -85.8450 205° Southwest 296 341 12,400 3,060 Climbing FlightAware ADS-B
Thu 04:21:26 AM 37.8720 -85.8760 208° Southwest 294 338 14,700 2,571 Climbing FlightAware ADS-B
Thu 04:22:10 AM 37.8120 -85.9050 201° Southwest 333 383 16,000 1,605 Climbing FlightAware ADS-B
Thu 04:22:52 AM 37.7440 -85.8910 171° South 374 430 17,000 1,643 Climbing FlightAware ADS-B
Thu 04:23:34 AM 37.6670 -85.8730 170° South 408 470 18,300 1,643 Climbing FlightAware ADS-B
Thu 04:24:16 AM 37.5880 -85.8550 170° South 439 505 19,300 1,261 Climbing FlightAware ADS-B
Thu 04:25:52 AM 37.4430 -85.8230 170° South 480 552 21,200 930 Climbing FlightAware ADS-B
Thu 04:26:38 AM 37.3510 -85.8010 169° South 482 555 21,500 2,483 Climbing FlightAware ADS-B
Thu 04:27:19 AM 37.1830 -85.7650 170° South 511 588 24,800 3,556 Climbing FlightAware ADS-B
Thu 04:27:59 AM 37.0920 -85.7450 170° South 514 592 26,300 2,259 Climbing FlightAware ADS-B
Thu 04:28:44 AM 36.9860 -85.7220 170° South 513 590 28,000 1,906 Climbing FlightAware ADS-B
Thu 04:29:24 AM 36.8970 -85.7020 170° South 509 586 29,000 732 Climbing FlightAware ADS-B
Thu 04:30:06 AM 36.7980 -85.6810 170° South 507 583 29,000  Level FlightAware ADS-B
Thu 04:30:41 AM 36.7140 -85.6620 170° South 507 583 29,000  Level FlightAware ADS-B
Thu 04:31:31 AM 36.6010 -85.6370 170° South 510 587 29,000  Level FlightAware ADS-B
Thu 04:32:11 AM 36.5120 -85.6170 170° South 513 590 29,000  Level FlightAware ADS-B
Thu 04:32:52 AM 36.4260 -85.5990 170° South 514 592 29,000  Level FlightAware ADS-B
Thu 04:33:35 AM 36.3050 -85.5720 170° South 515 593 29,000  Level FlightAware ADS-B
Thu 04:34:17 AM 36.2070 -85.5510 170° South 515 593 29,000  Level FlightAware ADS-B
Thu 04:35:44 AM 36.0550 -85.4990 165° South 521 600 29,000  Level FlightAware ADS-B
Thu 04:36:22 AM 35.9240 -85.4380 159° South 522 601 29,000  Level FlightAware ADS-B
Thu 04:37:11 AM 35.8110 -85.3870 160° South 523 602 29,000  Level FlightAware ADS-B
Thu 04:37:50 AM 35.7250 -85.3480 160° South 524 603 29,000  Level FlightAware ADS-B
Thu 04:38:32 AM 35.6290 -85.3050 160° South 526 605 29,000  Level FlightAware ADS-B
Thu 04:39:16 AM 35.5260 -85.2580 160° South 527 606 29,000  Level FlightAware ADS-B
Thu 04:39:58 AM 35.4290 -85.2150 160° South 528 608 29,000  Level FlightAware ADS-B
Thu 04:40:36 AM 35.3410 -85.1750 160° South 529 609 29,000  Level FlightAware ADS-B
Thu 04:41:34 AM 35.2480 -85.1340 160° South 529 609 29,000  Level FlightAware ADS-B
Thu 04:42:18 AM 35.1060 -85.0700 160° South 530 610 29,000 -71 Level FlightAware ADS-B
Thu 04:42:58 AM 35.0140 -85.0290 160° South 526 605 28,900 -1,024 Descending FlightAware ADS-B
Thu 04:43:40 AM 34.9190 -84.9880 161° South 515 593 27,600 -2,093 Descending FlightAware ADS-B
Thu 04:44:24 AM 34.8220 -84.9450 160° South 507 583 25,900 -2,286 Descending FlightAware ADS-B
Thu 04:45:04 AM 34.7350 -84.9060 160° South 491 565 24,400 -2,286 Descending FlightAware ADS-B
Thu 04:45:48 AM 34.6440 -84.8650 160° South 471 542 22,700 -2,286 Descending FlightAware ADS-B
Thu 04:46:28 AM 34.5630 -84.8300 160° South 455 524 21,200 -2,286 Descending FlightAware ADS-B
Thu 04:47:12 AM 34.4790 -84.7930 160° South 439 505 19,500 -2,400 Descending FlightAware ADS-B
Thu 04:47:53 AM 34.3980 -84.7570 160° South 428 493 17,800 -2,519 Descending FlightAware ADS-B
Thu 04:48:33 AM 34.3250 -84.7270 161° South 420 483 16,100 -2,929 Descending FlightAware ADS-B
Thu 04:49:17 AM 34.2420 -84.7120 172° South 401 461 13,700 -3,357 Descending FlightAware ADS-B
Thu 04:49:57 AM 34.1690 -84.7030 174° South 385 443 11,400 -3,000 Descending FlightAware ADS-B
Thu 04:50:09 AM 34.1490 -84.7010 175° South 373 429 11,100 -621 Descending FlightAware ADS-B
Thu 04:51:24 AM 34.1130 -84.6970 175° South 348 400 10,500 -1,000 Descending FlightAware ADS-B
Thu 04:51:39 AM 34.0360 -84.6870 174° South 288 331 9,600 -2,791 Descending FlightAware ADS-B
Thu 04:52:07 AM 33.9780 -84.6800 174° South 283 326 8,500 -1,846 Descending FlightAware ADS-B
Thu 04:52:31 AM 33.9470 -84.6760 174° South 280 322 8,000 -1,263 Descending FlightAware ADS-B
Thu 04:53:04 AM 33.9050 -84.6710 174° South 276 318 7,300 -1,180 Descending FlightAware ADS-B
Thu 04:53:32 AM 33.8700 -84.6670 175° South 272 313 6,800 -1,222 Descending FlightAware ADS-B
Thu 04:53:58 AM 33.8370 -84.6630 174° South 266 306 6,200 -1,222 Descending FlightAware ADS-B
Thu 04:54:26 AM 33.8040 -84.6590 174° South 246 283 5,700 -1,000 Descending FlightAware ADS-B
Thu 04:54:40 AM 33.7880 -84.6570 174° South 232 267 5,500 -571 Descending FlightAware ADS-B
Thu 04:55:08 AM 33.7600 -84.6540 175° South 208 239 5,300 -526 Descending FlightAware ADS-B
Thu 04:55:37 AM 33.7340 -84.6510 175° South 195 224 5,000 -828 Descending FlightAware ADS-B
Thu 04:56:06 AM 33.7080 -84.6480 175° South 193 222 4,500 -947 Descending FlightAware ADS-B
Thu 04:56:34 AM 33.6830 -84.6450 174° South 184 212 4,100 -750 Descending FlightAware ADS-B
Thu 04:56:46 AM 33.6740 -84.6440 175° South 185 213 4,000 -462 Descending FlightAware ADS-B
Thu 04:57:00 AM 33.6620 -84.6370 154° Southeast 177 204 3,900 -316 Descending FlightAware ADS-B
Thu 04:57:24 AM 33.6490 -84.6210 134° Southeast 157 181 3,800 -643 Descending FlightAware ADS-B
Thu 04:57:56 AM 33.6490 -84.5950 90° East 148 170 3,300 -900 Descending FlightAware ADS-B
Thu 04:58:04 AM 33.6500 -84.5880 80° East 147 169 3,200 -632 Descending FlightAware ADS-B
Thu 04:58:34 AM 33.6490 -84.5640 93° East 148 170 2,900 -720 Descending FlightAware ADS-B
Thu 04:58:54 AM 33.6490 -84.5470 90° East 149 171 2,600 -783 Descending FlightAware ADS-B
Thu 04:59:20 AM 33.6490 -84.5260 90° East 146 168 2,300 -720 Descending FlightAware ADS-B
Thu 04:59:44 AM 33.6490 -84.5060 90° East 143 165 2,000 -778 Descending FlightAware ADS-B
Thu 05:00:14 AM 33.6500 -84.4830 87° East 145 167 1,600 -857 Descending FlightAware ADS-B
Thu 05:00:26 AM 33.6500 -84.4730 90° East 144 166 1,400 -857 Descending FlightAware ADS-B
Thu 05:01:10 AM 33.6500 -84.4370 90° East 152 175 800 -818 Descending FlightAware ADS-B
Thu 05:01:39 AM 33.6500 -84.4220 90° East 35 40 -1,655 Descending FlightAware ADS-B
Thu 05:02:16 AM 33.6500 -84.4170 90° East 26 30  Level FlightAware ADS-B
Thu 05:02:52 AM 33.6510 -84.4190 301° West 19 22  Level FlightAware ADS-B
Thu 05:08:00 AM 33.6367 -84.4279 207° Southwest  Level Estimated
Thu 05:09:00 AM 33.6367 -84.4279 261° West  Level Estimated
Thu 05:10:00 AM 33.6367 -84.4279 261° West  Level Estimated

Login

Don't have an account? Register now (free) for customized features, flight alerts, and more!